createdAt,value
2023-02-21T00:01:44.102Z,2.10
2023-02-21T00:04:29.158Z,2.50
2023-02-21T00:07:13.930Z,3.40
2023-02-21T00:09:58.829Z,2.65
2023-02-21T00:12:43.807Z,2.67
2023-02-21T00:15:29.778Z,2.15
2023-02-21T00:18:14.586Z,2.80
2023-02-21T00:20:59.347Z,3.03
2023-02-21T00:23:44.359Z,2.92
2023-02-21T00:26:29.449Z,2.47
2023-02-21T00:29:14.154Z,2.92
2023-02-21T00:31:59.001Z,3.00
2023-02-21T00:34:43.860Z,2.80
2023-02-21T00:37:28.726Z,2.88
2023-02-21T00:40:13.671Z,2.63
2023-02-21T00:42:58.542Z,2.38
2023-02-21T00:45:43.397Z,2.80
2023-02-21T00:48:28.409Z,2.13
2023-02-21T00:51:13.860Z,2.60
2023-02-21T00:53:59.228Z,2.58
2023-02-21T00:56:44.094Z,2.97
2023-02-21T00:59:28.740Z,2.50
2023-02-21T01:02:13.722Z,3.47
2023-02-21T01:04:58.645Z,3.20
2023-02-21T01:07:43.845Z,3.00
2023-02-21T01:10:29.054Z,2.90
2023-02-21T01:13:13.922Z,2.97
2023-02-21T01:15:58.688Z,2.90
2023-02-21T01:18:43.424Z,2.38
2023-02-21T01:21:33.348Z,2.50
2023-02-21T01:24:18.130Z,2.30
2023-02-21T01:27:02.854Z,2.58
2023-02-21T01:29:47.750Z,3.55
2023-02-21T01:32:32.524Z,4.25
2023-02-21T01:35:17.512Z,4.03
2023-02-21T01:38:02.254Z,3.60
2023-02-21T01:40:47.165Z,3.63
2023-02-21T01:43:39.062Z,3.58
2023-02-21T01:46:25.457Z,3.28
2023-02-21T01:49:12.648Z,3.42
2023-02-21T01:52:00.051Z,4.13
2023-02-21T01:54:52.939Z,4.60
2023-02-21T01:57:39.264Z,4.40
2023-02-21T02:00:27.974Z,4.35
2023-02-21T02:06:06.621Z,3.33
2023-02-21T02:08:52.514Z,4.07
2023-02-21T02:12:12.857Z,4.30
2023-02-21T02:14:57.807Z,3.67
2023-02-21T02:18:14.368Z,3.78
2023-02-21T02:21:25.048Z,3.92
2023-02-21T02:24:11.438Z,3.83
2023-02-21T02:26:56.950Z,3.60
2023-02-21T02:29:32.714Z,3.85
2023-02-21T02:32:21.083Z,4.53
2023-02-21T02:35:00.155Z,4.18
2023-02-21T02:37:58.641Z,3.80
2023-02-21T02:40:40.629Z,3.92
2023-02-21T02:45:44.553Z,4.50
2023-02-21T02:48:22.067Z,4.40
2023-02-21T02:50:50.964Z,4.18
2023-02-21T02:53:21.971Z,5.10
2023-02-21T02:55:59.605Z,4.63
2023-02-21T02:58:29.718Z,4.15
2023-02-21T03:01:12.478Z,5.20
2023-02-21T03:03:58.046Z,4.75
2023-02-21T03:06:35.517Z,4.40
2023-02-21T03:09:07.671Z,4.43
2023-02-21T03:11:37.201Z,4.80
2023-02-21T03:14:14.711Z,4.32
2023-02-21T03:16:47.193Z,4.40
2023-02-21T03:19:35.529Z,4.75
2023-02-21T03:22:07.080Z,3.67
2023-02-21T03:24:34.941Z,4.38
2023-02-21T03:27:05.790Z,4.28
2023-02-21T03:29:34.038Z,4.60
2023-02-21T03:32:13.352Z,4.78
2023-02-21T03:34:42.052Z,5.28
2023-02-21T03:37:10.892Z,4.53
2023-02-21T03:39:37.382Z,4.35
2023-02-21T03:42:03.912Z,4.45
2023-02-21T03:44:30.310Z,4.50
2023-02-21T03:46:56.760Z,4.18
2023-02-21T03:49:23.280Z,4.75
2023-02-21T03:51:49.794Z,5.20
2023-02-21T03:54:16.252Z,4.65
2023-02-21T03:56:42.881Z,4.90
2023-02-21T03:59:09.404Z,4.55
2023-02-21T04:01:35.829Z,4.78
2023-02-21T04:04:02.253Z,5.20
2023-02-21T04:06:28.628Z,5.25
2023-02-21T04:08:55.150Z,5.50
2023-02-21T04:11:22.262Z,5.07
2023-02-21T04:13:48.809Z,5.03
2023-02-21T04:16:15.220Z,5.10
2023-02-21T04:18:41.609Z,4.80
2023-02-21T04:21:08.090Z,4.82
2023-02-21T04:23:34.461Z,5.13
2023-02-21T04:26:00.846Z,5.10
2023-02-21T04:28:27.344Z,4.00
2023-02-21T04:30:53.891Z,4.72
2023-02-21T04:33:20.339Z,4.30
2023-02-21T04:35:48.739Z,5.30
2023-02-21T04:38:15.107Z,4.97
2023-02-21T04:40:41.521Z,5.00
2023-02-21T04:43:08.043Z,5.70
2023-02-21T04:45:34.557Z,5.75
2023-02-21T04:48:01.247Z,5.43
2023-02-21T04:50:28.684Z,5.15
2023-02-21T04:52:55.173Z,5.13
2023-02-21T04:55:21.533Z,5.85
2023-02-21T04:57:47.929Z,6.45
2023-02-21T05:00:16.366Z,4.90
2023-02-21T05:02:46.221Z,5.57
2023-02-21T05:05:13.065Z,5.32
2023-02-21T05:07:42.503Z,5.07
2023-02-21T05:10:09.726Z,5.00
2023-02-21T05:12:37.863Z,4.38
2023-02-21T05:15:04.637Z,5.30
2023-02-21T05:17:31.084Z,5.65
2023-02-21T05:19:57.615Z,5.00
2023-02-21T05:22:24.771Z,4.68
2023-02-21T05:24:51.274Z,4.57
2023-02-21T05:27:19.914Z,4.95
2023-02-21T05:29:48.784Z,4.82
2023-02-21T05:32:15.807Z,4.85
2023-02-21T05:34:44.598Z,5.22
2023-02-21T05:37:11.892Z,5.22
2023-02-21T05:39:38.772Z,4.70
2023-02-21T05:42:05.525Z,4.45
2023-02-21T05:44:31.941Z,5.25
2023-02-21T05:46:58.616Z,4.80
2023-02-21T05:49:27.502Z,4.38
2023-02-21T05:51:54.031Z,4.53
2023-02-21T05:54:22.079Z,4.68
2023-02-21T05:56:50.251Z,4.68
2023-02-21T05:59:19.542Z,4.78
2023-02-21T06:01:46.811Z,5.20
2023-02-21T06:04:13.355Z,6.40
2023-02-21T06:06:40.179Z,6.72
2023-02-21T06:09:07.794Z,6.10
2023-02-21T06:11:37.617Z,6.07
2023-02-21T06:14:06.847Z,6.05
2023-02-21T06:16:37.569Z,6.18
2023-02-21T06:19:05.851Z,5.57
2023-02-21T06:21:33.544Z,5.43
2023-02-21T06:23:59.986Z,4.65
2023-02-21T06:26:26.641Z,5.28
2023-02-21T06:28:53.378Z,5.57
2023-02-21T06:31:20.800Z,5.55
2023-02-21T06:33:48.414Z,5.53
2023-02-21T06:36:18.008Z,5.82
2023-02-21T06:38:46.203Z,5.05
2023-02-21T06:41:15.622Z,5.72
2023-02-21T06:43:42.370Z,5.35
2023-02-21T06:46:09.032Z,5.72
2023-02-21T06:48:35.493Z,5.53
2023-02-21T06:51:02.112Z,5.57
2023-02-21T06:53:28.632Z,5.55
2023-02-21T06:55:55.033Z,5.40
2023-02-21T06:58:21.532Z,5.50
2023-02-21T07:00:47.972Z,4.28
2023-02-21T07:03:14.434Z,4.75
2023-02-21T07:05:40.803Z,5.03
2023-02-21T07:08:07.240Z,5.53
2023-02-21T07:10:33.685Z,5.40
2023-02-21T07:13:00.277Z,5.10
2023-02-21T07:15:27.188Z,4.72
2023-02-21T07:17:53.578Z,4.53
2023-02-21T07:20:19.981Z,4.50
2023-02-21T07:22:46.394Z,4.30
2023-02-21T07:25:17.969Z,4.45
2023-02-21T07:27:46.401Z,4.20
2023-02-21T07:30:13.457Z,4.30
2023-02-21T07:32:40.049Z,4.35
2023-02-21T07:35:07.004Z,3.90
2023-02-21T07:37:33.422Z,4.32
2023-02-21T07:40:00.245Z,3.92
2023-02-21T07:42:27.195Z,4.45
2023-02-21T07:44:58.001Z,4.43
2023-02-21T07:47:25.585Z,4.03
2023-02-21T07:49:54.031Z,4.80
2023-02-21T07:52:21.886Z,3.63
2023-02-21T07:54:48.628Z,3.72
2023-02-21T07:57:16.940Z,3.72
2023-02-21T07:59:43.645Z,4.13
2023-02-21T08:02:12.428Z,4.55
2023-02-21T08:04:39.583Z,4.07
2023-02-21T08:07:06.919Z,3.35
2023-02-21T08:09:33.832Z,4.20
2023-02-21T08:12:00.265Z,5.03
2023-02-21T08:14:26.779Z,3.78
2023-02-21T08:16:53.347Z,4.47
2023-02-21T08:19:19.841Z,3.65
2023-02-21T08:21:47.622Z,3.65
2023-02-21T08:24:14.636Z,3.30
2023-02-21T08:26:41.940Z,3.15
2023-02-21T08:29:09.069Z,3.78
2023-02-21T08:31:36.828Z,3.88
2023-02-21T08:34:03.642Z,4.43
2023-02-21T08:36:39.082Z,4.47
2023-02-21T08:39:06.846Z,4.00
2023-02-21T08:41:37.372Z,3.80
2023-02-21T08:44:04.541Z,4.10
2023-02-21T08:46:31.157Z,3.53
2023-02-21T08:48:57.688Z,3.70
2023-02-21T08:51:31.891Z,3.13
2023-02-21T08:53:58.599Z,3.70
2023-02-21T08:56:26.161Z,3.13
2023-02-21T08:58:54.489Z,3.08
2023-02-21T09:01:22.585Z,3.33
2023-02-21T09:03:49.137Z,3.03
2023-02-21T09:06:16.075Z,4.45
2023-02-21T09:08:42.521Z,3.50
2023-02-21T09:11:09.096Z,4.15
2023-02-21T09:13:35.654Z,3.65
2023-02-21T09:16:03.694Z,3.08
2023-02-21T09:18:31.181Z,2.97
2023-02-21T09:20:58.135Z,3.50
2023-02-21T09:23:26.976Z,3.30
2023-02-21T09:25:53.767Z,3.08
2023-02-21T09:28:20.442Z,4.05
2023-02-21T09:30:47.410Z,3.55
2023-02-21T09:33:14.475Z,2.95
2023-02-21T09:35:41.113Z,3.40
2023-02-21T09:38:08.155Z,3.30
2023-02-21T09:40:55.896Z,3.47
2023-02-21T09:43:33.539Z,3.47
2023-02-21T09:46:04.346Z,3.20
2023-02-21T09:48:31.804Z,3.72
2023-02-21T09:51:02.674Z,3.40
2023-02-21T09:53:33.265Z,3.10
2023-02-21T09:56:05.552Z,3.33
2023-02-21T09:58:32.110Z,3.15
2023-02-21T10:01:03.608Z,3.60
2023-02-21T10:03:43.954Z,3.05
2023-02-21T10:06:35.330Z,3.45
2023-02-21T10:09:37.096Z,3.45
2023-02-21T10:12:16.493Z,3.03
2023-02-21T10:15:16.517Z,3.28
2023-02-21T10:17:46.937Z,3.45
2023-02-21T10:20:26.976Z,2.90
2023-02-21T10:22:56.259Z,3.53
2023-02-21T10:25:25.799Z,3.08
2023-02-21T10:27:53.917Z,3.20
2023-02-21T10:30:37.098Z,3.30
2023-02-21T10:33:08.012Z,3.45
2023-02-21T10:35:36.255Z,3.30
2023-02-21T10:38:07.295Z,2.95
2023-02-21T10:40:50.797Z,3.30
2023-02-21T10:43:21.280Z,3.28
2023-02-21T10:45:51.493Z,3.15
2023-02-21T10:48:19.749Z,3.33
2023-02-21T10:51:12.519Z,3.17
2023-02-21T10:53:44.538Z,3.30
2023-02-21T10:56:19.877Z,3.10
2023-02-21T10:58:46.253Z,3.08
2023-02-21T11:01:31.432Z,2.92
2023-02-21T11:04:05.697Z,2.78
2023-02-21T11:06:39.947Z,2.92
2023-02-21T11:09:38.914Z,3.22
2023-02-21T11:12:26.863Z,3.08
2023-02-21T11:14:53.204Z,3.15
2023-02-21T11:17:23.805Z,3.20
2023-02-21T11:19:51.564Z,3.05
2023-02-21T11:22:42.526Z,2.70
2023-02-21T11:25:12.030Z,2.90
2023-02-21T11:27:39.255Z,2.70
2023-02-21T11:30:16.904Z,2.60
2023-02-21T11:32:50.904Z,2.30
2023-02-21T11:35:20.391Z,2.33
2023-02-21T11:37:49.770Z,2.22
2023-02-21T11:40:28.009Z,1.83
2023-02-21T11:43:24.160Z,2.10
2023-02-21T11:46:05.258Z,1.92
2023-02-21T11:48:37.248Z,1.75
2023-02-21T11:51:13.801Z,1.60
2023-02-21T11:53:44.201Z,1.90
2023-02-21T11:56:24.053Z,1.50
2023-02-21T11:58:56.349Z,1.60
2023-02-21T12:01:31.188Z,1.90
2023-02-21T12:04:27.391Z,1.50
2023-02-21T12:06:53.829Z,2.13
2023-02-21T12:09:38.988Z,1.30
2023-02-21T12:12:20.888Z,1.38
2023-02-21T12:15:13.310Z,1.10
2023-02-21T12:17:58.962Z,0.90
2023-02-21T12:20:55.761Z,1.20
2023-02-21T12:23:26.732Z,0.80
2023-02-21T12:25:56.173Z,1.10
2023-02-21T12:28:53.757Z,1.08
2023-02-21T12:31:41.602Z,1.17
2023-02-21T12:34:34.359Z,1.20
2023-02-21T12:37:14.024Z,1.23
2023-02-21T12:40:05.241Z,1.05
2023-02-21T12:42:47.730Z,0.90
2023-02-21T12:45:49.971Z,1.98
2023-02-21T12:48:29.740Z,1.70
2023-02-21T12:51:04.669Z,1.00
2023-02-21T12:53:40.910Z,0.98
2023-02-21T12:56:12.329Z,1.15
2023-02-21T12:58:52.893Z,1.20
2023-02-21T13:01:25.458Z,0.68
2023-02-21T13:04:28.168Z,0.80
2023-02-21T13:07:25.646Z,0.90
2023-02-21T13:10:01.934Z,0.90
2023-02-21T13:12:32.519Z,0.90
2023-02-21T13:15:16.267Z,0.80
2023-02-21T13:17:44.650Z,0.80
2023-02-21T13:20:18.607Z,0.98
2023-02-21T13:25:44.232Z,1.08
2023-02-21T13:28:23.440Z,0.80
2023-02-21T13:30:59.148Z,1.00
2023-02-21T13:33:30.466Z,1.00
2023-02-21T13:35:59.839Z,0.88
2023-02-21T13:38:30.843Z,0.80
2023-02-21T13:41:11.185Z,0.63
2023-02-21T13:43:47.905Z,0.80
2023-02-21T13:46:44.590Z,0.60
2023-02-21T13:49:44.611Z,0.68
2023-02-21T13:52:22.368Z,0.70
2023-02-21T13:55:19.491Z,0.85
2023-02-21T13:58:08.955Z,0.80
2023-02-21T14:00:35.355Z,0.80
2023-02-21T14:03:28.489Z,0.70
2023-02-21T14:06:44.625Z,0.60
2023-02-21T14:09:15.347Z,0.70
2023-02-21T14:11:49.404Z,0.70
2023-02-21T14:17:03.042Z,0.75
2023-02-21T14:19:51.172Z,0.70
2023-02-21T14:22:29.336Z,0.80
2023-02-21T14:25:21.444Z,0.73
2023-02-21T14:27:47.916Z,0.85
2023-02-21T14:30:23.620Z,0.82
2023-02-21T14:32:52.703Z,0.70
2023-02-21T14:35:19.033Z,0.65
2023-02-21T14:37:57.920Z,0.85
2023-02-21T14:40:53.237Z,0.90
2023-02-21T14:43:37.890Z,0.70
2023-02-21T14:46:14.476Z,0.88
2023-02-21T14:48:52.788Z,0.77
2023-02-21T14:51:50.655Z,0.80
2023-02-21T14:54:38.474Z,1.00
2023-02-21T14:57:35.012Z,1.00
2023-02-21T15:00:29.384Z,1.00
2023-02-21T15:05:43.772Z,0.82
2023-02-21T15:08:16.986Z,0.68
2023-02-21T15:10:46.094Z,0.75
2023-02-21T15:13:33.971Z,0.98
2023-02-21T15:16:04.431Z,0.90
2023-02-21T15:18:34.784Z,0.90
2023-02-21T15:21:12.038Z,1.00
2023-02-21T15:23:41.129Z,0.93
2023-02-21T15:26:30.122Z,0.88
2023-02-21T15:29:12.120Z,0.93
2023-02-21T15:31:55.317Z,0.80
2023-02-21T15:34:24.896Z,0.73
2023-02-21T15:37:02.954Z,0.88
2023-02-21T15:39:33.601Z,0.90
2023-02-21T15:42:03.502Z,0.85
2023-02-21T15:44:34.371Z,0.90
2023-02-21T15:47:09.696Z,0.90
2023-02-21T15:49:47.564Z,0.70
2023-02-21T15:52:36.311Z,0.73
2023-02-21T15:55:20.856Z,0.90
2023-02-21T15:58:01.990Z,0.93
2023-02-21T16:00:33.511Z,0.70
2023-02-21T16:03:29.595Z,0.80
2023-02-21T16:06:21.367Z,1.17
2023-02-21T16:09:17.141Z,0.80
2023-02-21T16:12:04.569Z,1.23
2023-02-21T16:14:59.170Z,0.70
2023-02-21T16:17:28.341Z,0.80
2023-02-21T16:20:13.276Z,0.80
2023-02-21T16:23:06.329Z,1.10
2023-02-21T16:25:27.737Z,1.02
2023-02-21T16:27:57.822Z,0.90
2023-02-21T16:30:27.422Z,1.30
2023-02-21T16:32:59.389Z,1.48
2023-02-21T16:35:26.742Z,1.45
2023-02-21T16:37:56.458Z,1.77
2023-02-21T16:40:26.562Z,1.83
2023-02-21T16:42:54.532Z,1.98
2023-02-21T16:45:22.040Z,1.50
2023-02-21T16:47:49.972Z,2.20
2023-02-21T16:50:20.866Z,2.08
2023-02-21T16:52:47.959Z,2.25
2023-02-21T16:55:17.093Z,1.92
2023-02-21T16:57:46.945Z,2.08
2023-02-21T17:00:14.130Z,2.20
2023-02-21T17:02:40.847Z,2.10
2023-02-21T17:05:07.397Z,2.08
2023-02-21T17:07:33.843Z,1.90
2023-02-21T17:10:00.292Z,1.83
2023-02-21T17:12:26.677Z,1.67
2023-02-21T17:14:53.087Z,2.10
2023-02-21T17:17:19.530Z,1.90
2023-02-21T17:19:45.976Z,1.98
2023-02-21T17:22:12.331Z,2.17
2023-02-21T17:24:38.771Z,1.92
2023-02-21T17:27:05.232Z,1.83
2023-02-21T17:29:31.727Z,1.55
2023-02-21T17:31:58.829Z,1.75
2023-02-21T17:34:25.240Z,1.60
2023-02-21T17:36:52.343Z,1.50
2023-02-21T17:39:20.135Z,1.38
2023-02-21T17:44:14.265Z,1.30
2023-02-21T17:46:45.869Z,1.23
2023-02-21T17:49:12.337Z,1.75
2023-02-21T17:51:38.780Z,2.00
2023-02-21T17:54:05.347Z,2.67
2023-02-21T17:56:32.031Z,2.40
2023-02-21T17:58:59.177Z,2.03
2023-02-21T18:01:25.633Z,2.05
2023-02-21T18:03:52.129Z,1.50
2023-02-21T18:06:20.670Z,1.80
2023-02-21T18:08:47.432Z,2.13
2023-02-21T18:11:17.794Z,1.55
2023-02-21T18:13:44.638Z,1.95
2023-02-21T18:16:11.133Z,1.38
2023-02-21T18:18:37.684Z,1.60
2023-02-21T18:21:04.362Z,1.80
2023-02-21T18:23:32.052Z,1.67
2023-02-21T18:25:58.650Z,1.55
2023-02-21T18:28:26.104Z,1.50
2023-02-21T18:30:53.822Z,1.58
2023-02-21T18:33:23.185Z,1.77
2023-02-21T18:35:49.695Z,1.40
2023-02-21T18:38:19.222Z,2.03
2023-02-21T18:40:45.946Z,2.30
2023-02-21T18:43:24.336Z,1.88
2023-02-21T18:45:53.053Z,1.83
2023-02-21T18:48:20.804Z,2.08
2023-02-21T18:50:48.021Z,2.20
2023-02-21T18:53:15.828Z,2.10
2023-02-21T18:55:42.340Z,2.70
2023-02-21T18:58:09.384Z,2.30
2023-02-21T19:00:36.865Z,2.30
2023-02-21T19:03:06.224Z,2.33
2023-02-21T19:05:33.606Z,2.38
2023-02-21T19:08:00.680Z,2.42
2023-02-21T19:10:29.000Z,3.28
2023-02-21T19:12:59.149Z,3.40
2023-02-21T19:15:25.922Z,3.75
2023-02-21T19:17:52.377Z,4.07
2023-02-21T19:20:19.861Z,4.30
2023-02-21T19:22:46.718Z,4.28
2023-02-21T19:25:14.727Z,4.90
2023-02-21T19:27:42.979Z,4.60
2023-02-21T19:30:11.646Z,5.57
2023-02-21T19:32:38.783Z,5.15
2023-02-21T19:35:06.745Z,5.40
2023-02-21T19:39:59.482Z,5.80
2023-02-21T19:42:25.895Z,6.22
2023-02-21T19:44:52.282Z,5.03
2023-02-21T19:47:18.683Z,5.15
2023-02-21T19:49:46.472Z,4.70
2023-02-21T19:52:13.406Z,4.80
2023-02-21T19:54:39.918Z,5.13
2023-02-21T19:57:06.306Z,4.30
2023-02-21T19:59:33.845Z,4.80
2023-02-21T20:02:00.782Z,4.65
2023-02-21T20:04:28.734Z,4.80
2023-02-21T20:09:25.145Z,4.22
2023-02-21T20:11:51.585Z,4.70
2023-02-21T20:14:18.772Z,3.83
2023-02-21T20:16:45.244Z,3.85
2023-02-21T20:19:12.559Z,4.00
2023-02-21T20:21:39.388Z,3.88
2023-02-21T20:24:07.253Z,3.97
2023-02-21T20:26:33.963Z,3.65
2023-02-21T20:29:00.524Z,3.85
2023-02-21T20:31:32.569Z,3.60
2023-02-21T20:34:02.801Z,3.78
2023-02-21T20:36:32.283Z,3.50
2023-02-21T20:38:58.735Z,3.67
2023-02-21T20:41:29.285Z,4.15
2023-02-21T20:43:55.716Z,3.95
2023-02-21T20:46:22.903Z,3.10
2023-02-21T20:48:50.142Z,3.33
2023-02-21T20:51:18.177Z,3.38
2023-02-21T20:53:47.645Z,2.67
2023-02-21T20:56:14.048Z,3.65
2023-02-21T20:58:40.829Z,3.55
2023-02-21T21:01:07.893Z,3.55
2023-02-21T21:03:35.815Z,4.50
2023-02-21T21:06:03.059Z,3.67
2023-02-21T21:08:29.622Z,4.20
2023-02-21T21:10:57.344Z,4.15
2023-02-21T21:13:23.784Z,4.03
2023-02-21T21:15:50.172Z,5.38
2023-02-21T21:18:16.651Z,5.25
2023-02-21T21:20:43.060Z,5.13
2023-02-21T21:23:09.407Z,5.40
2023-02-21T21:25:35.839Z,5.15
2023-02-21T21:28:04.058Z,5.55
2023-02-21T21:30:32.917Z,5.07
2023-02-21T21:33:00.693Z,4.85
2023-02-21T21:35:32.858Z,4.70
2023-02-21T21:37:59.481Z,5.07
2023-02-21T21:40:27.036Z,5.28
2023-02-21T21:42:53.982Z,5.70
2023-02-21T21:45:26.251Z,5.75
2023-02-21T21:47:58.335Z,4.82
2023-02-21T21:50:25.419Z,5.57
2023-02-21T21:52:54.562Z,5.47
2023-02-21T21:55:26.914Z,6.68
2023-02-21T21:57:54.297Z,6.35
2023-02-21T22:00:24.995Z,5.57
2023-02-21T22:02:57.086Z,6.28
2023-02-21T22:05:30.331Z,5.60
2023-02-21T22:07:58.115Z,6.88
2023-02-21T22:10:25.704Z,7.07
2023-02-21T22:12:53.515Z,6.68
2023-02-21T22:15:22.364Z,6.65
2023-02-21T22:17:49.190Z,7.07
2023-02-21T22:20:17.841Z,8.32
2023-02-21T22:22:48.876Z,9.20
2023-02-21T22:25:17.097Z,7.18
2023-02-21T22:30:10.428Z,8.68
2023-02-21T22:32:36.900Z,8.10
2023-02-21T22:35:04.000Z,8.77
2023-02-21T22:37:30.532Z,7.57
2023-02-21T22:39:56.943Z,7.80
2023-02-21T22:42:23.330Z,7.63
2023-02-21T22:44:50.566Z,6.90
2023-02-21T22:47:18.829Z,8.05
2023-02-21T22:52:12.699Z,6.72
2023-02-21T22:54:39.126Z,7.72
2023-02-21T22:57:05.533Z,7.22
2023-02-21T22:59:35.399Z,6.43
2023-02-21T23:02:03.234Z,6.85
2023-02-21T23:04:36.657Z,6.50
2023-02-21T23:07:04.423Z,7.47
2023-02-21T23:09:31.123Z,6.63
2023-02-21T23:12:00.143Z,6.95
2023-02-21T23:14:28.033Z,6.30
2023-02-21T23:16:58.947Z,6.82
2023-02-21T23:19:26.964Z,6.07
2023-02-21T23:21:54.031Z,6.65
2023-02-21T23:24:21.994Z,6.15
2023-02-21T23:26:49.967Z,6.43
2023-02-21T23:29:24.113Z,7.72
2023-02-21T23:31:52.069Z,6.72
2023-02-21T23:34:19.760Z,6.25
2023-02-21T23:36:46.194Z,6.03
2023-02-21T23:39:15.037Z,6.18
2023-02-21T23:41:42.938Z,7.18
2023-02-21T23:44:11.685Z,6.93
2023-02-21T23:46:42.650Z,7.13
2023-02-21T23:49:11.660Z,6.78
2023-02-21T23:51:38.676Z,7.22
2023-02-21T23:54:07.191Z,6.55
2023-02-21T23:56:35.587Z,6.68
2023-02-21T23:59:05.981Z,6.85
